Time;durP1;ratioP1;P1;durP2;ratioP2;P2;SDS_P1;SDS_P2;PMS_P1;PMS_P2;Temp;Humidity;BMP_temperature;BMP_pressure;BME280_temperature;BME280_humidity;BME280_pressure;Samples;Min_cycle;Max_cycle;Signal;HPM_P1;HPM_P2
2022/07/16 00:02:46;;;;;;;0.00;0.00;;;15.80;99.90;226.50;231333.00;;;;5065618;28;20514;-72
2022/07/16 00:05:14;;;;;;;0.00;0.00;;;15.80;99.90;226.50;231333.00;;;;5070463;28;20186;-73
2022/07/16 00:07:42;;;;;;;0.00;0.00;;;15.70;99.90;226.50;231333.00;;;;5070545;28;20197;-73
2022/07/16 00:10:10;;;;;;;0.00;0.00;;;15.50;99.90;226.50;231333.00;;;;5071670;28;20221;-73
2022/07/16 00:12:39;;;;;;;0.10;0.10;;;15.50;99.90;226.50;231333.00;;;;5068138;28;20205;-72
2022/07/16 00:15:08;;;;;;;0.00;0.00;;;15.50;99.90;226.50;231333.00;;;;5059226;28;20191;-73
2022/07/16 00:17:36;;;;;;;0.00;0.00;;;15.40;99.90;226.50;231333.00;;;;5061864;28;20221;-73
2022/07/16 00:20:06;;;;;;;0.00;0.00;;;15.20;99.90;226.50;231333.00;;;;5069590;28;20232;-72
2022/07/16 00:22:34;;;;;;;0.00;0.00;;;15.00;99.90;226.50;231333.00;;;;5071072;28;20202;-72
2022/07/16 00:25:04;;;;;;;0.08;0.08;;;15.20;99.90;226.50;231333.00;;;;5068350;28;20201;-74
2022/07/16 00:27:32;;;;;;;0.00;0.00;;;15.20;99.90;226.50;231333.00;;;;5074132;28;20935;-71
2022/07/16 00:30:00;;;;;;;0.00;0.00;;;15.30;99.90;226.50;231333.00;;;;5061612;28;20221;-72
2022/07/16 00:32:28;;;;;;;0.00;0.00;;;15.30;99.90;226.50;231333.00;;;;5058289;28;20514;-71
2022/07/16 00:34:55;;;;;;;0.00;0.00;;;15.20;99.90;226.50;231333.00;;;;5058151;28;20186;-72
2022/07/16 00:37:25;;;;;;;0.00;0.00;;;15.10;99.90;226.50;231333.00;;;;5065588;28;20201;-72
2022/07/16 00:39:53;;;;;;;0.00;0.00;;;15.10;99.90;226.50;231333.00;;;;5069973;28;20232;-72
2022/07/16 00:42:21;;;;;;;0.00;0.00;;;14.90;99.90;226.50;231333.00;;;;5058436;28;20198;-72
2022/07/16 00:44:49;;;;;;;0.00;0.00;;;15.00;99.90;226.50;231333.00;;;;5055594;28;20198;-73
2022/07/16 00:47:18;;;;;;;0.00;0.00;;;14.90;99.90;226.50;231333.00;;;;5061779;28;20186;-71
2022/07/16 00:49:46;;;;;;;0.00;0.00;;;14.80;99.90;226.50;231333.00;;;;5072225;28;20225;-74
2022/07/16 00:52:14;;;;;;;0.00;0.00;;;14.80;99.90;226.50;231333.00;;;;5072208;28;20565;-73
2022/07/16 00:54:43;;;;;;;0.10;0.10;;;14.70;99.90;226.50;231333.00;;;;5072503;28;20657;-74
2022/07/16 00:57:12;;;;;;;0.00;0.00;;;14.70;99.90;226.50;231333.00;;;;5072037;28;20194;-72
2022/07/16 00:59:40;;;;;;;0.00;0.00;;;14.60;99.90;226.50;231333.00;;;;5071300;28;20233;-73
2022/07/16 01:02:08;;;;;;;0.00;0.00;;;14.50;99.90;226.50;231333.00;;;;5070753;28;20194;-72
2022/07/16 01:04:37;;;;;;;0.10;0.10;;;14.40;99.90;226.50;231333.00;;;;5064165;28;20201;-72
2022/07/16 01:07:08;;;;;;;0.00;0.00;;;14.30;99.90;226.50;231333.00;;;;5071692;28;20190;-73
2022/07/16 01:09:37;;;;;;;0.08;0.08;;;14.30;99.90;226.50;231333.00;;;;5073649;28;20253;-73
2022/07/16 01:12:07;;;;;;;0.00;0.00;;;14.30;99.90;226.50;231333.00;;;;5069888;28;20190;-74
2022/07/16 01:14:36;;;;;;;0.00;0.00;;;14.20;99.90;226.50;231333.00;;;;5071075;28;20213;-73
2022/07/16 01:17:04;;;;;;;0.00;0.00;;;14.30;99.90;226.50;231333.00;;;;5073787;28;20194;-73
2022/07/16 01:19:32;;;;;;;0.10;0.10;;;14.20;99.90;226.50;231333.00;;;;5073475;28;20213;-73
2022/07/16 01:22:01;;;;;;;0.00;0.00;;;14.20;99.90;226.50;231333.00;;;;5071667;28;20205;-73
2022/07/16 01:24:30;;;;;;;0.00;0.00;;;14.20;99.90;226.50;231333.00;;;;5058534;28;20201;-73
2022/07/16 01:26:58;;;;;;;0.08;0.08;;;14.10;99.90;226.50;231333.00;;;;5066180;28;20209;-73
2022/07/16 01:29:26;;;;;;;0.00;0.00;;;14.30;99.90;226.50;231333.00;;;;5065688;28;20304;-73
2022/07/16 01:31:54;;;;;;;0.00;0.00;;;14.10;99.90;226.50;231333.00;;;;5067233;28;20199;-73
2022/07/16 01:34:28;;;;;;;0.00;0.00;;;14.00;99.90;226.50;231333.00;;;;5059686;28;20559;-73
2022/07/16 01:36:58;;;;;;;0.10;0.10;;;14.00;99.90;226.50;231333.00;;;;5067649;28;20201;-73
2022/07/16 01:39:31;;;;;;;0.05;0.05;;;13.90;99.90;226.50;231333.00;;;;5065801;28;20728;-74
2022/07/16 01:42:03;;;;;;;0.10;0.10;;;13.90;99.90;226.50;231333.00;;;;5070207;28;20688;-74
2022/07/16 01:44:34;;;;;;;0.10;0.10;;;13.80;99.90;226.50;231333.00;;;;5055581;28;20194;-74
2022/07/16 01:47:05;;;;;;;0.10;0.10;;;13.80;99.90;226.50;231333.00;;;;5066667;28;20194;-74
2022/07/16 01:49:36;;;;;;;0.00;0.00;;;13.70;99.90;226.50;231333.00;;;;5066947;28;20225;-74
2022/07/16 01:52:08;;;;;;;0.10;0.10;;;13.80;99.90;226.50;231333.00;;;;5071737;28;20201;-73
2022/07/16 01:54:43;;;;;;;0.10;0.10;;;13.60;99.90;226.50;231333.00;;;;5073542;28;20202;-74
2022/07/16 01:57:11;;;;;;;0.00;0.00;;;13.60;99.90;226.50;231333.00;;;;5063147;28;20198;-74
2022/07/16 01:59:40;;;;;;;0.10;0.10;;;13.50;99.90;226.50;231333.00;;;;5065330;28;20553;-73
2022/07/16 02:02:08;;;;;;;0.00;0.00;;;13.60;99.90;226.50;231333.00;;;;5060082;28;20200;-74
2022/07/16 02:04:38;;;;;;;0.00;0.00;;;13.60;99.90;226.50;231333.00;;;;5065726;28;20434;-74
2022/07/16 02:07:07;;;;;;;0.10;0.10;;;13.60;99.90;226.50;231333.00;;;;5070453;28;20221;-73
2022/07/16 02:09:35;;;;;;;0.10;0.10;;;13.60;99.90;226.50;231333.00;;;;5065330;28;20206;-73
2022/07/16 02:12:05;;;;;;;0.10;0.10;;;13.60;99.90;226.50;231333.00;;;;5068044;28;20255;-72
2022/07/16 02:14:33;;;;;;;0.00;0.00;;;13.60;99.90;226.50;231333.00;;;;5068923;28;20704;-72
2022/07/16 02:17:01;;;;;;;0.10;0.10;;;13.60;99.90;226.50;231333.00;;;;5067754;28;20204;-73
2022/07/16 02:19:30;;;;;;;0.10;0.10;;;13.60;99.90;226.50;231333.00;;;;5068169;28;20249;-72
2022/07/16 02:22:00;;;;;;;0.00;0.00;;;13.50;99.90;226.50;231333.00;;;;5073061;28;20228;-73
2022/07/16 02:24:28;;;;;;;0.00;0.00;;;13.40;99.90;226.50;231333.00;;;;5072537;28;20198;-73
2022/07/16 02:26:56;;;;;;;0.10;0.10;;;13.30;99.90;226.50;231333.00;;;;5071953;28;20201;-73
2022/07/16 02:29:26;;;;;;;0.10;0.10;;;13.40;99.90;226.50;231333.00;;;;5066611;28;20712;-74
2022/07/16 02:31:54;;;;;;;0.10;0.10;;;13.30;99.90;226.50;231333.00;;;;5060931;28;20661;-73
2022/07/16 02:34:22;;;;;;;0.10;0.10;;;13.20;99.90;226.50;231333.00;;;;5073208;28;20553;-72
2022/07/16 02:36:50;;;;;;;0.10;0.10;;;13.20;99.90;226.50;231333.00;;;;5074041;28;20194;-72
2022/07/16 02:39:18;;;;;;;0.00;0.00;;;13.10;99.90;226.50;231333.00;;;;5073227;28;20766;-73
2022/07/16 02:41:46;;;;;;;0.00;0.00;;;13.10;99.90;226.50;231333.00;;;;5072979;28;20221;-73
2022/07/16 02:44:14;;;;;;;0.10;0.10;;;12.90;99.90;226.50;231333.00;;;;5070994;28;20194;-74
2022/07/16 02:46:43;;;;;;;0.10;0.10;;;12.80;99.90;226.50;231333.00;;;;5072739;28;20285;-74
2022/07/16 02:49:11;;;;;;;0.10;0.10;;;12.70;99.90;226.50;231333.00;;;;5068921;28;20210;-73
2022/07/16 02:51:39;;;;;;;0.10;0.10;;;12.70;99.90;226.50;231333.00;;;;5072794;28;20205;-73
2022/07/16 02:54:07;;;;;;;0.03;0.03;;;12.60;99.90;226.50;231333.00;;;;5073225;28;20194;-71
2022/07/16 02:56:35;;;;;;;0.00;0.00;;;12.70;99.90;226.50;231333.00;;;;5069321;28;20202;-71
2022/07/16 02:59:04;;;;;;;0.10;0.10;;;12.80;99.90;226.50;231333.00;;;;5071899;28;20229;-70
2022/07/16 03:01:32;;;;;;;0.10;0.10;;;12.70;99.90;226.50;231333.00;;;;5068283;28;20609;-70
2022/07/16 03:04:01;;;;;;;0.10;0.10;;;12.70;99.90;226.50;231333.00;;;;5067076;28;20193;-70
2022/07/16 03:06:29;;;;;;;0.03;0.03;;;12.60;99.90;226.50;231333.00;;;;5072191;28;20204;-70
2022/07/16 03:08:57;;;;;;;0.10;0.10;;;12.50;99.90;226.50;231333.00;;;;5064984;28;20580;-71
2022/07/16 03:11:25;;;;;;;0.00;0.00;;;12.50;99.90;226.50;231333.00;;;;5071469;28;20202;-70
2022/07/16 03:13:53;;;;;;;0.10;0.10;;;12.40;99.90;226.50;231333.00;;;;5059758;28;20194;-70
2022/07/16 03:16:21;;;;;;;0.00;0.00;;;12.30;99.90;226.50;231333.00;;;;5058640;28;20221;-71
2022/07/16 03:18:50;;;;;;;0.00;0.00;;;12.30;99.90;226.50;231333.00;;;;5070541;28;20217;-69
2022/07/16 03:21:19;;;;;;;0.10;0.10;;;12.20;99.90;226.50;231333.00;;;;5066880;28;20759;-69
2022/07/16 03:23:47;;;;;;;0.10;0.10;;;12.20;99.90;226.50;231333.00;;;;5070589;28;20190;-70
2022/07/16 03:26:15;;;;;;;0.10;0.10;;;12.20;99.90;226.50;231333.00;;;;5061443;28;20208;-70
2022/07/16 03:28:43;;;;;;;0.10;0.10;;;12.20;99.90;226.50;231333.00;;;;5064824;28;20222;-71
2022/07/16 03:31:11;;;;;;;0.10;0.10;;;12.20;99.90;226.50;231333.00;;;;5070771;28;20212;-70
2022/07/16 03:33:39;;;;;;;0.10;0.10;;;12.20;99.90;226.50;231333.00;;;;5071859;28;20392;-70
2022/07/16 03:36:07;;;;;;;0.10;0.10;;;12.10;99.90;226.50;231333.00;;;;5064681;28;20194;-70
2022/07/16 03:41:23;;;;;;;0.00;0.00;;;11.90;99.90;226.50;231333.00;;;;5069270;28;20551;-71
2022/07/16 03:43:51;;;;;;;0.10;0.10;;;11.90;99.90;226.50;231333.00;;;;5071185;28;20212;-70
2022/07/16 03:46:20;;;;;;;0.10;0.10;;;11.90;99.90;226.50;231333.00;;;;5071395;28;20190;-70
2022/07/16 03:48:48;;;;;;;0.10;0.10;;;11.90;99.90;226.50;231333.00;;;;5068920;28;20205;-70
2022/07/16 03:51:16;;;;;;;0.10;0.10;;;11.90;99.90;226.50;231333.00;;;;5059278;28;20199;-70
2022/07/16 03:53:47;;;;;;;0.10;0.10;;;11.90;99.90;226.50;231333.00;;;;5054068;28;20662;-71
2022/07/16 03:56:15;;;;;;;0.10;0.10;;;11.90;99.90;226.50;231333.00;;;;5070142;28;20194;-70
2022/07/16 03:58:43;;;;;;;0.10;0.10;;;12.00;99.90;226.50;231333.00;;;;5071891;28;20225;-70
2022/07/16 04:01:11;;;;;;;0.10;0.10;;;11.80;99.90;226.50;231333.00;;;;5070967;28;20236;-71
2022/07/16 04:03:40;;;;;;;0.10;0.10;;;11.90;99.90;226.50;231333.00;;;;5057239;28;20209;-70
2022/07/16 04:06:09;;;;;;;0.10;0.10;;;11.80;99.90;226.50;231333.00;;;;5070753;28;20583;-70
2022/07/16 04:08:37;;;;;;;0.10;0.10;;;11.80;99.90;226.50;231333.00;;;;5070888;28;20217;-70
2022/07/16 04:11:06;;;;;;;0.10;0.10;;;11.80;99.90;226.50;231333.00;;;;5071074;28;20203;-70
2022/07/16 04:13:37;;;;;;;0.10;0.10;;;11.90;99.90;226.50;231333.00;;;;5068555;28;20224;-70
2022/07/16 04:16:07;;;;;;;0.10;0.10;;;11.80;99.90;226.50;231333.00;;;;5065246;28;20197;-71
2022/07/16 04:18:36;;;;;;;0.10;0.10;;;11.90;99.90;226.50;231333.00;;;;5065713;28;20198;-70
2022/07/16 04:21:06;;;;;;;0.00;0.00;;;11.90;99.90;226.50;231333.00;;;;5067242;28;20260;-70
2022/07/16 04:23:35;;;;;;;0.10;0.10;;;12.00;99.90;226.50;231333.00;;;;5071203;28;20565;-70
2022/07/16 04:26:05;;;;;;;0.10;0.10;;;12.00;99.90;226.50;231333.00;;;;5070897;28;20193;-70
2022/07/16 04:28:33;;;;;;;0.10;0.10;;;12.00;99.90;226.50;231333.00;;;;5070352;28;20197;-71
2022/07/16 04:31:02;;;;;;;0.10;0.10;;;12.00;99.90;226.50;231333.00;;;;5062989;28;20235;-70
2022/07/16 04:33:30;;;;;;;0.10;0.10;;;12.10;99.90;226.50;231333.00;;;;5068737;28;20194;-70
2022/07/16 04:35:58;;;;;;;0.10;0.10;;;12.00;99.90;226.50;231333.00;;;;5069116;28;20669;-70
2022/07/16 04:38:26;;;;;;;0.10;0.10;;;12.10;99.90;226.50;231333.00;;;;5056142;28;20198;-69
2022/07/16 04:40:54;;;;;;;0.10;0.10;;;12.20;99.90;226.50;231333.00;;;;5053274;28;20196;-69
2022/07/16 04:43:23;;;;;;;0.10;0.10;;;12.10;99.90;226.50;231333.00;;;;5066711;28;20573;-70
2022/07/16 04:45:51;;;;;;;0.10;0.10;;;12.00;99.90;226.50;231333.00;;;;5071396;28;20193;-69
2022/07/16 04:48:19;;;;;;;0.10;0.10;;;12.10;99.90;226.50;231333.00;;;;5066739;28;20190;-69
2022/07/16 04:50:47;;;;;;;0.10;0.10;;;12.10;99.90;226.50;231333.00;;;;5068968;28;20281;-69
2022/07/16 04:53:15;;;;;;;0.00;0.00;;;12.10;99.90;226.50;231333.00;;;;5068143;28;20202;-70
2022/07/16 04:55:43;;;;;;;0.10;0.10;;;12.10;99.90;226.50;231333.00;;;;5072759;28;20216;-70
2022/07/16 04:58:11;;;;;;;0.10;0.10;;;12.20;99.90;226.50;231333.00;;;;5074287;28;20196;-69
2022/07/16 05:00:40;;;;;;;0.10;0.10;;;12.30;99.90;226.50;231333.00;;;;5072273;28;20555;-70
2022/07/16 05:03:09;;;;;;;0.10;0.10;;;12.30;99.90;226.50;231333.00;;;;5054724;28;20214;-70
2022/07/16 05:05:39;;;;;;;0.10;0.10;;;12.40;99.90;226.50;231333.00;;;;5064077;28;20198;-70
2022/07/16 05:08:09;;;;;;;0.10;0.10;;;12.40;99.90;226.50;231333.00;;;;5056240;28;20189;-70
2022/07/16 05:10:37;;;;;;;0.10;0.10;;;12.50;99.90;226.50;231333.00;;;;5067073;28;20219;-71
2022/07/16 05:13:07;;;;;;;0.10;0.10;;;12.50;99.90;226.50;231333.00;;;;5071847;28;20198;-70
2022/07/16 05:15:35;;;;;;;0.10;0.10;;;12.60;99.90;226.50;231333.00;;;;5072180;28;20229;-70
2022/07/16 05:18:05;;;;;;;0.00;0.00;;;12.60;99.90;226.50;231333.00;;;;5074757;28;20198;-70
2022/07/16 05:20:33;;;;;;;0.10;0.10;;;12.70;99.90;226.50;231333.00;;;;5074670;28;20252;-69
2022/07/16 05:23:01;;;;;;;0.08;0.08;;;12.90;99.90;226.50;231333.00;;;;5074343;28;20231;-70
2022/07/16 05:25:30;;;;;;;0.08;0.08;;;13.00;99.90;226.50;231333.00;;;;5073287;28;20280;-69
2022/07/16 05:27:58;;;;;;;0.10;0.10;;;13.10;99.90;226.50;231333.00;;;;5070013;28;20202;-69
2022/07/16 05:30:26;;;;;;;0.00;0.00;;;13.20;99.90;226.50;231333.00;;;;5072933;28;20271;-69
2022/07/16 05:32:54;;;;;;;0.10;0.10;;;13.30;99.90;226.50;231333.00;;;;5070587;28;20185;-70
2022/07/16 05:35:24;;;;;;;0.00;0.00;;;13.50;99.90;226.50;231333.00;;;;5055906;28;20210;-69
2022/07/16 05:37:52;;;;;;;0.10;0.10;;;13.40;99.90;226.50;231333.00;;;;5061288;28;20186;-71
2022/07/16 05:40:20;;;;;;;0.10;0.10;;;13.40;99.90;226.50;231333.00;;;;5069830;28;20205;-72
2022/07/16 05:42:48;;;;;;;0.10;0.10;;;13.50;99.90;226.50;231333.00;;;;5068908;28;20297;-71
2022/07/16 05:45:17;;;;;;;0.10;0.10;;;13.50;99.90;226.50;231333.00;;;;5064079;28;20669;-70
2022/07/16 05:47:46;;;;;;;0.10;0.10;;;13.60;99.90;226.50;231333.00;;;;5071611;28;20601;-71
2022/07/16 05:50:14;;;;;;;0.10;0.10;;;13.70;99.90;226.50;231333.00;;;;5072376;28;20271;-71
2022/07/16 05:52:44;;;;;;;0.10;0.10;;;13.70;99.90;226.50;231333.00;;;;5071749;28;20205;-70
2022/07/16 05:55:12;;;;;;;0.10;0.10;;;13.90;99.90;226.50;231333.00;;;;5071730;28;20190;-71
2022/07/16 05:57:40;;;;;;;0.10;0.10;;;14.00;99.90;226.50;231333.00;;;;5076099;28;20202;-71
2022/07/16 06:00:11;;;;;;;0.10;0.10;;;14.20;99.90;226.50;231333.00;;;;5077070;28;20217;-71
2022/07/16 06:02:41;;;;;;;0.10;0.10;;;14.30;99.90;226.50;231333.00;;;;5073938;28;20230;-71
2022/07/16 06:05:11;;;;;;;0.08;0.08;;;14.40;99.90;226.50;231333.00;;;;5073771;28;20197;-71
2022/07/16 06:07:39;;;;;;;0.10;0.10;;;14.50;99.90;226.50;231333.00;;;;5072793;28;20200;-70
2022/07/16 06:10:09;;;;;;;0.10;0.10;;;14.60;99.90;226.50;231333.00;;;;5073459;28;20205;-70
2022/07/16 06:12:38;;;;;;;0.08;0.08;;;14.70;99.90;226.50;231333.00;;;;5072731;28;20205;-70
2022/07/16 06:15:10;;;;;;;0.00;0.00;;;14.80;99.90;226.50;231333.00;;;;5074489;28;20204;-71
2022/07/16 06:17:39;;;;;;;0.00;0.00;;;14.90;99.90;226.50;231333.00;;;;5077654;28;20193;-71
2022/07/16 06:20:10;;;;;;;0.08;0.08;;;15.00;99.90;226.50;231333.00;;;;5080429;28;20219;-71
2022/07/16 06:22:38;;;;;;;0.10;0.10;;;15.10;99.90;226.50;231333.00;;;;5082304;28;20221;-71
2022/07/16 06:25:15;;;;;;;0.10;0.10;;;15.30;99.90;226.50;231333.00;;;;5073979;28;20696;-70
2022/07/16 06:27:44;;;;;;;0.00;0.00;;;15.40;99.90;226.50;231333.00;;;;5072770;28;20699;-72
2022/07/16 06:30:14;;;;;;;0.00;0.00;;;15.60;99.90;226.50;231333.00;;;;5053115;28;20206;-70
2022/07/16 06:32:43;;;;;;;0.00;0.00;;;15.70;99.90;226.50;231333.00;;;;5071766;28;20280;-71
2022/07/16 06:35:12;;;;;;;0.10;0.10;;;15.80;99.90;226.50;231333.00;;;;5072036;28;20190;-71
2022/07/16 06:37:40;;;;;;;0.00;0.00;;;16.00;99.90;226.50;231333.00;;;;5072019;28;20209;-71
2022/07/16 06:40:10;;;;;;;0.05;0.05;;;16.10;99.90;226.50;231333.00;;;;5065150;28;20214;-71
2022/07/16 06:42:39;;;;;;;0.00;0.00;;;16.20;99.90;226.50;231333.00;;;;5072053;28;20213;-70
2022/07/16 06:45:10;;;;;;;0.00;0.00;;;16.30;99.90;226.50;231333.00;;;;5068904;28;20193;-71
2022/07/16 06:47:38;;;;;;;0.00;0.00;;;16.40;99.90;226.50;231333.00;;;;5072314;28;20247;-71
2022/07/16 06:50:07;;;;;;;0.00;0.00;;;16.50;99.90;226.50;231333.00;;;;5072137;28;20214;-71
2022/07/16 06:52:35;;;;;;;0.00;0.00;;;16.70;99.90;226.50;231333.00;;;;5068738;28;20198;-71
2022/07/16 06:55:03;;;;;;;0.00;0.00;;;16.80;99.90;226.50;231333.00;;;;5061218;28;20317;-71
2022/07/16 06:57:31;;;;;;;0.05;0.05;;;16.90;99.90;226.50;231333.00;;;;5055700;28;20206;-71
2022/07/16 07:00:00;;;;;;;0.00;0.00;;;17.00;99.90;226.50;231333.00;;;;5066343;28;20420;-72
2022/07/16 07:02:28;;;;;;;0.00;0.00;;;17.10;99.90;226.50;231333.00;;;;5065318;28;20213;-72
2022/07/16 07:04:56;;;;;;;0.00;0.00;;;17.10;99.90;226.50;231333.00;;;;5066340;28;20202;-71
2022/07/16 07:07:25;;;;;;;0.00;0.00;;;17.30;99.90;226.50;231333.00;;;;5060330;28;20222;-72
2022/07/16 07:09:53;;;;;;;0.00;0.00;;;17.40;99.90;226.50;231333.00;;;;5072358;28;20213;-71
2022/07/16 07:12:21;;;;;;;0.00;0.00;;;17.50;99.90;226.50;231333.00;;;;5072458;28;20190;-72
2022/07/16 07:14:49;;;;;;;0.00;0.00;;;17.60;99.90;226.50;231333.00;;;;5070927;28;20194;-71
2022/07/16 07:17:18;;;;;;;0.00;0.00;;;17.70;99.90;226.50;231333.00;;;;5069094;28;20186;-71
2022/07/16 07:19:46;;;;;;;0.00;0.00;;;17.80;99.90;226.50;231333.00;;;;5071921;28;20209;-72
2022/07/16 07:22:14;;;;;;;0.10;0.10;;;17.90;99.90;226.50;231333.00;;;;5072110;28;20197;-72
2022/07/16 07:24:42;;;;;;;0.00;0.00;;;17.90;99.90;226.50;231333.00;;;;5069927;28;20213;-72
2022/07/16 07:27:14;;;;;;;0.00;0.00;;;18.00;99.90;226.50;231333.00;;;;5069077;28;20225;-72
2022/07/16 07:29:42;;;;;;;0.00;0.00;;;18.20;99.90;226.50;231333.00;;;;5071644;28;20558;-72
2022/07/16 07:32:10;;;;;;;0.00;0.00;;;18.20;99.90;226.50;231333.00;;;;5071969;28;20704;-72
2022/07/16 07:34:40;;;;;;;0.00;0.00;;;18.30;99.90;226.50;231333.00;;;;5067203;28;20205;-72
2022/07/16 07:37:08;;;;;;;0.00;0.00;;;18.50;99.90;226.50;231333.00;;;;5068385;28;20702;-71
2022/07/16 07:39:36;;;;;;;0.00;0.00;;;18.80;99.90;226.50;231333.00;;;;5059574;28;20218;-71
2022/07/16 07:42:05;;;;;;;0.00;0.00;;;19.10;99.90;226.50;231333.00;;;;5052296;28;20194;-71
2022/07/16 07:44:32;;;;;;;0.00;0.00;;;19.10;99.90;226.50;231333.00;;;;5065683;28;20226;-72
2022/07/16 07:47:00;;;;;;;0.00;0.00;;;19.10;99.90;226.50;231333.00;;;;5064869;28;20480;-71
2022/07/16 07:49:28;;;;;;;0.00;0.00;;;19.20;99.90;226.50;231333.00;;;;5064409;28;20305;-71
2022/07/16 07:51:58;;;;;;;0.00;0.00;;;19.20;99.90;226.50;231333.00;;;;5051795;28;20202;-72
2022/07/16 07:54:26;;;;;;;0.00;0.00;;;19.40;99.90;226.50;231333.00;;;;5069605;28;20198;-72
2022/07/16 07:56:54;;;;;;;0.00;0.00;;;19.70;99.90;226.50;231333.00;;;;5071392;28;20231;-72
2022/07/16 07:59:22;;;;;;;0.00;0.00;;;19.80;99.90;226.50;231333.00;;;;5066685;28;20206;-72
2022/07/16 08:01:50;;;;;;;0.00;0.00;;;19.60;99.90;226.50;231333.00;;;;5058024;28;20608;-72
2022/07/16 08:04:18;;;;;;;0.00;0.00;;;19.50;99.90;226.50;231333.00;;;;5064595;28;20221;-72
2022/07/16 08:06:46;;;;;;;0.00;0.00;;;19.40;99.90;226.50;231333.00;;;;5071106;28;20201;-72
2022/07/16 08:09:15;;;;;;;0.00;0.00;;;19.20;99.90;226.50;231333.00;;;;5067020;28;20599;-73
2022/07/16 08:11:44;;;;;;;0.00;0.00;;;19.10;99.90;226.50;231333.00;;;;5053488;28;20285;-71
2022/07/16 08:14:11;;;;;;;0.00;0.00;;;19.10;99.90;226.50;231333.00;;;;5064844;28;20554;-72
2022/07/16 08:16:56;;;;;;;0.00;0.00;;;19.00;99.90;226.50;231333.00;;;;5070165;28;20197;-72
2022/07/16 08:19:26;;;;;;;0.00;0.00;;;18.90;99.90;226.50;231333.00;;;;5072785;28;20569;-71
2022/07/16 08:21:55;;;;;;;0.00;0.00;;;19.00;99.90;226.50;231333.00;;;;5064611;28;20211;-71
2022/07/16 08:27:11;;;;;;;0.00;0.00;;;19.10;99.90;226.50;231333.00;;;;5057313;28;20194;-71
2022/07/16 08:29:39;;;;;;;0.00;0.00;;;19.20;99.90;226.50;231333.00;;;;5075644;28;20568;-71
2022/07/16 08:32:08;;;;;;;0.00;0.00;;;19.40;99.90;226.50;231333.00;;;;5075067;28;20247;-70
2022/07/16 08:34:36;;;;;;;0.00;0.00;;;19.50;99.90;226.50;231333.00;;;;5074977;28;20262;-74
2022/07/16 08:37:09;;;;;;;0.00;0.00;;;19.70;99.90;226.50;231333.00;;;;5074406;28;20276;-73
2022/07/16 08:39:42;;;;;;;0.00;0.00;;;19.70;99.90;226.50;231333.00;;;;5065666;28;20214;-73
2022/07/16 08:42:11;;;;;;;0.00;0.00;;;19.70;99.90;226.50;231333.00;;;;5056464;28;20277;-73
2022/07/16 08:44:41;;;;;;;0.00;0.00;;;19.90;99.90;226.50;231333.00;;;;5058042;28;20218;-73
2022/07/16 08:47:14;;;;;;;0.00;0.00;;;19.90;99.90;226.50;231333.00;;;;5059375;28;20283;-73
2022/07/16 08:49:45;;;;;;;0.00;0.00;;;20.00;99.90;226.50;231333.00;;;;5074856;28;20317;-71
2022/07/16 08:52:14;;;;;;;0.00;0.00;;;20.00;99.90;226.50;231333.00;;;;5075748;28;20209;-72
2022/07/16 08:54:45;;;;;;;0.00;0.00;;;19.80;99.90;226.50;231333.00;;;;5074843;28;20675;-73
2022/07/16 08:57:21;;;;;;;0.00;0.00;;;19.70;99.90;226.50;231333.00;;;;5075056;28;20638;-73
2022/07/16 08:59:49;;;;;;;0.00;0.00;;;19.90;99.90;226.50;231333.00;;;;5075891;28;20217;-73
2022/07/16 09:02:18;;;;;;;0.00;0.00;;;20.00;99.90;226.50;231333.00;;;;5074452;28;20200;-73
2022/07/16 09:04:47;;;;;;;0.00;0.00;;;20.20;99.90;226.50;231333.00;;;;5067920;28;20221;-73
2022/07/16 09:07:17;;;;;;;0.00;0.00;;;20.10;99.90;226.50;231333.00;;;;5070237;28;20259;-74
2022/07/16 09:09:47;;;;;;;0.00;0.00;;;20.20;99.90;226.50;231333.00;;;;5054926;28;20242;-73
2022/07/16 09:12:36;;;;;;;0.00;0.00;;;20.10;99.90;226.50;231333.00;;;;5066610;28;20263;-73
2022/07/16 09:15:30;;;;;;;0.00;0.00;;;20.00;99.90;226.50;231333.00;;;;5075054;28;20216;-73
2022/07/16 09:18:20;;;;;;;0.00;0.00;;;19.90;99.90;226.50;231333.00;;;;5072899;28;20280;-73
2022/07/16 09:20:52;;;;;;;0.00;0.00;;;20.00;99.90;226.50;231333.00;;;;5070876;28;20206;-73
2022/07/16 09:23:25;;;;;;;0.00;0.00;;;20.00;99.90;226.50;231333.00;;;;5070242;28;20182;-73
2022/07/16 09:25:58;;;;;;;0.00;0.00;;;20.10;99.90;226.50;231333.00;;;;5054233;28;20191;-73
2022/07/16 09:28:40;;;;;;;0.00;0.00;;;20.10;99.90;226.50;231333.00;;;;5056547;28;20193;-73
2022/07/16 09:31:08;;;;;;;0.00;0.00;;;20.00;99.90;226.50;231333.00;;;;5063720;28;20204;-73
2022/07/16 09:33:36;;;;;;;0.00;0.00;;;19.80;99.90;226.50;231333.00;;;;5073627;28;20205;-73
2022/07/16 09:36:11;;;;;;;0.00;0.00;;;19.90;99.90;226.50;231333.00;;;;5065575;28;20201;-73
2022/07/16 09:38:47;;;;;;;0.00;0.00;;;19.80;99.90;226.50;231333.00;;;;5072451;28;20231;-73
2022/07/16 09:41:18;;;;;;;0.00;0.00;;;19.80;99.90;226.50;231333.00;;;;5074000;28;20204;-73
2022/07/16 09:43:47;;;;;;;0.00;0.00;;;19.80;99.90;226.50;231333.00;;;;5074646;28;20198;-73
2022/07/16 09:46:18;;;;;;;0.00;0.00;;;20.00;99.90;226.50;231333.00;;;;5075445;28;20570;-73
2022/07/16 09:48:47;;;;;;;0.00;0.00;;;19.90;99.90;226.50;231333.00;;;;5076662;28;20220;-73
2022/07/16 09:51:22;;;;;;;0.00;0.00;;;19.80;99.90;226.50;231333.00;;;;5078618;28;20197;-72
2022/07/16 09:53:53;;;;;;;0.00;0.00;;;19.80;99.90;226.50;231333.00;;;;5073609;28;20193;-73
2022/07/16 09:56:25;;;;;;;0.00;0.00;;;19.80;99.90;226.50;231333.00;;;;5074027;28;20198;-73
2022/07/16 09:58:57;;;;;;;0.00;0.00;;;19.80;99.90;226.50;231333.00;;;;5077950;28;20220;-72
2022/07/16 10:01:33;;;;;;;0.00;0.00;;;19.90;99.90;226.50;231333.00;;;;5077286;28;20193;-72
2022/07/16 10:04:04;;;;;;;0.00;0.00;;;20.10;99.90;226.50;231333.00;;;;5077585;28;20189;-73
2022/07/16 10:06:33;;;;;;;0.00;0.00;;;20.00;99.90;226.50;231333.00;;;;5076471;28;20212;-73
2022/07/16 10:09:02;;;;;;;0.00;0.00;;;19.90;99.90;226.50;231333.00;;;;5072510;28;20618;-73
2022/07/16 10:11:33;;;;;;;0.00;0.00;;;19.90;99.90;226.50;231333.00;;;;5073314;28;20186;-72
2022/07/16 10:14:01;;;;;;;0.00;0.00;;;19.80;99.90;226.50;231333.00;;;;5072482;28;20194;-72
2022/07/16 10:16:40;;;;;;;0.00;0.00;;;19.90;99.90;226.50;231333.00;;;;5066315;28;20202;-73
2022/07/16 10:19:09;;;;;;;0.00;0.00;;;20.00;99.90;226.50;231333.00;;;;5057336;28;20225;-73
2022/07/16 10:21:37;;;;;;;0.00;0.00;;;20.00;99.90;226.50;231333.00;;;;5052900;28;20622;-73
2022/07/16 10:24:09;;;;;;;0.00;0.00;;;20.00;99.90;226.50;231333.00;;;;5070943;28;20264;-73
2022/07/16 10:26:39;;;;;;;0.00;0.00;;;20.20;99.90;226.50;231333.00;;;;5066652;28;20225;-74
2022/07/16 10:29:07;;;;;;;0.00;0.00;;;20.30;99.90;226.50;231333.00;;;;5073281;28;20300;-73
2022/07/16 10:31:41;;;;;;;0.00;0.00;;;20.30;99.90;226.50;231333.00;;;;5073607;28;20193;-73
2022/07/16 10:34:40;;;;;;;0.00;0.00;;;20.40;99.90;226.50;231333.00;;;;5073076;28;20634;-73
2022/07/16 10:37:25;;;;;;;0.00;0.00;;;20.40;99.90;226.50;231333.00;;;;5073540;28;20198;-73
2022/07/16 10:40:12;;;;;;;0.00;0.00;;;20.30;99.90;226.50;231333.00;;;;5071475;28;20222;-73
2022/07/16 10:42:42;;;;;;;0.00;0.00;;;20.50;99.90;226.50;231333.00;;;;5075080;28;20567;-73
2022/07/16 10:45:10;;;;;;;0.00;0.00;;;20.40;99.90;226.50;231333.00;;;;5075740;28;20214;-73
2022/07/16 10:47:50;;;;;;;0.00;0.00;;;20.60;99.90;226.50;231333.00;;;;5074077;28;20212;-73
2022/07/16 10:50:23;;;;;;;0.00;0.00;;;20.50;99.90;226.50;231333.00;;;;5071841;28;20217;-73
2022/07/16 10:52:53;;;;;;;0.00;0.00;;;20.50;99.90;226.50;231333.00;;;;5072175;28;20281;-73
2022/07/16 10:55:40;;;;;;;0.00;0.00;;;20.20;99.90;226.50;231333.00;;;;5071323;28;20259;-73
2022/07/16 10:58:09;;;;;;;0.00;0.00;;;20.10;99.90;226.50;231333.00;;;;5072294;28;20185;-73